sensor_id;sensor_type;location;lat;lon;timestamp;temperature;humidity
6375;DHT22;35400;45.472;-122.822;2024-01-30T00:02:00;15.40;99.90
6375;DHT22;35400;45.472;-122.822;2024-01-30T00:04:27;15.40;99.90
6375;DHT22;35400;45.472;-122.822;2024-01-30T00:06:54;15.40;99.90
6375;DHT22;35400;45.472;-122.822;2024-01-30T00:09:21;15.30;99.90
6375;DHT22;35400;45.472;-122.822;2024-01-30T00:11:48;15.30;99.90
6375;DHT22;35400;45.472;-122.822;2024-01-30T00:14:14;15.30;99.90
6375;DHT22;35400;45.472;-122.822;2024-01-30T00:16:41;15.30;99.90
6375;DHT22;35400;45.472;-122.822;2024-01-30T00:19:08;15.20;99.90
6375;DHT22;35400;45.472;-122.822;2024-01-30T00:21:35;15.20;99.90
6375;DHT22;35400;45.472;-122.822;2024-01-30T00:24:02;15.20;99.90
6375;DHT22;35400;45.472;-122.822;2024-01-30T00:26:28;15.10;99.90
6375;DHT22;35400;45.472;-122.822;2024-01-30T00:28:55;15.10;99.90
6375;DHT22;35400;45.472;-122.822;2024-01-30T00:31:22;15.00;99.90
6375;DHT22;35400;45.472;-122.822;2024-01-30T00:33:49;14.90;99.90
6375;DHT22;35400;45.472;-122.822;2024-01-30T00:36:16;14.90;99.90
6375;DHT22;35400;45.472;-122.822;2024-01-30T00:38:43;14.80;99.90
6375;DHT22;35400;45.472;-122.822;2024-01-30T00:41:09;14.80;99.90
6375;DHT22;35400;45.472;-122.822;2024-01-30T00:43:37;14.70;99.90
6375;DHT22;35400;45.472;-122.822;2024-01-30T00:46:04;14.70;99.90
6375;DHT22;35400;45.472;-122.822;2024-01-30T00:48:31;14.60;99.90
6375;DHT22;35400;45.472;-122.822;2024-01-30T00:50:58;14.60;99.90
6375;DHT22;35400;45.472;-122.822;2024-01-30T00:53:24;14.50;99.90
6375;DHT22;35400;45.472;-122.822;2024-01-30T00:55:51;14.40;99.90
6375;DHT22;35400;45.472;-122.822;2024-01-30T00:58:18;14.40;99.90
6375;DHT22;35400;45.472;-122.822;2024-01-30T01:00:45;14.30;99.90
6375;DHT22;35400;45.472;-122.822;2024-01-30T01:03:12;14.20;99.90
6375;DHT22;35400;45.472;-122.822;2024-01-30T01:05:40;14.20;99.90
6375;DHT22;35400;45.472;-122.822;2024-01-30T01:08:07;14.10;99.90
6375;DHT22;35400;45.472;-122.822;2024-01-30T01:10:33;14.00;99.90
6375;DHT22;35400;45.472;-122.822;2024-01-30T01:13:00;13.90;99.90
6375;DHT22;35400;45.472;-122.822;2024-01-30T01:15:27;13.90;99.90
6375;DHT22;35400;45.472;-122.822;2024-01-30T01:17:54;13.80;99.90
6375;DHT22;35400;45.472;-122.822;2024-01-30T01:20:21;13.70;99.90
6375;DHT22;35400;45.472;-122.822;2024-01-30T01:22:47;13.70;99.90
6375;DHT22;35400;45.472;-122.822;2024-01-30T01:25:14;13.60;99.90
6375;DHT22;35400;45.472;-122.822;2024-01-30T01:27:41;13.60;99.90
6375;DHT22;35400;45.472;-122.822;2024-01-30T01:30:10;13.50;99.90
6375;DHT22;35400;45.472;-122.822;2024-01-30T01:32:38;13.50;99.90
6375;DHT22;35400;45.472;-122.822;2024-01-30T01:35:05;13.40;99.90
6375;DHT22;35400;45.472;-122.822;2024-01-30T01:37:34;13.50;99.90
6375;DHT22;35400;45.472;-122.822;2024-01-30T01:40:01;13.40;99.90
6375;DHT22;35400;45.472;-122.822;2024-01-30T01:42:28;13.40;99.90
6375;DHT22;35400;45.472;-122.822;2024-01-30T01:44:55;13.40;99.90
6375;DHT22;35400;45.472;-122.822;2024-01-30T01:47:21;13.40;99.90
6375;DHT22;35400;45.472;-122.822;2024-01-30T01:49:48;13.40;99.90
6375;DHT22;35400;45.472;-122.822;2024-01-30T01:52:16;13.40;99.90
6375;DHT22;35400;45.472;-122.822;2024-01-30T01:54:43;13.40;99.90
6375;DHT22;35400;45.472;-122.822;2024-01-30T01:57:10;13.30;99.90
6375;DHT22;35400;45.472;-122.822;2024-01-30T01:59:37;13.30;99.90
6375;DHT22;35400;45.472;-122.822;2024-01-30T02:02:04;13.30;99.90
6375;DHT22;35400;45.472;-122.822;2024-01-30T02:04:34;13.20;99.90
6375;DHT22;35400;45.472;-122.822;2024-01-30T02:07:00;13.20;99.90
6375;DHT22;35400;45.472;-122.822;2024-01-30T02:09:27;13.20;99.90
6375;DHT22;35400;45.472;-122.822;2024-01-30T02:11:55;13.20;99.90
6375;DHT22;35400;45.472;-122.822;2024-01-30T02:14:21;13.20;99.90
6375;DHT22;35400;45.472;-122.822;2024-01-30T02:16:48;13.10;99.90
6375;DHT22;35400;45.472;-122.822;2024-01-30T02:19:15;13.10;99.90
6375;DHT22;35400;45.472;-122.822;2024-01-30T02:21:42;13.10;99.90
6375;DHT22;35400;45.472;-122.822;2024-01-30T02:24:08;13.10;99.90
6375;DHT22;35400;45.472;-122.822;2024-01-30T02:26:35;13.10;99.90
6375;DHT22;35400;45.472;-122.822;2024-01-30T02:29:02;13.00;99.90
6375;DHT22;35400;45.472;-122.822;2024-01-30T02:31:29;13.00;99.90
6375;DHT22;35400;45.472;-122.822;2024-01-30T02:33:56;13.00;99.90
6375;DHT22;35400;45.472;-122.822;2024-01-30T02:36:22;13.00;99.90
6375;DHT22;35400;45.472;-122.822;2024-01-30T02:38:49;12.90;99.90
6375;DHT22;35400;45.472;-122.822;2024-01-30T02:41:16;12.90;99.90
6375;DHT22;35400;45.472;-122.822;2024-01-30T02:43:43;12.80;99.90
6375;DHT22;35400;45.472;-122.822;2024-01-30T02:46:10;12.80;99.90
6375;DHT22;35400;45.472;-122.822;2024-01-30T02:48:36;12.80;99.90
6375;DHT22;35400;45.472;-122.822;2024-01-30T02:51:06;12.70;99.90
6375;DHT22;35400;45.472;-122.822;2024-01-30T02:53:32;12.70;99.90
6375;DHT22;35400;45.472;-122.822;2024-01-30T02:55:59;12.70;99.90
6375;DHT22;35400;45.472;-122.822;2024-01-30T02:58:26;12.60;99.90
6375;DHT22;35400;45.472;-122.822;2024-01-30T03:00:53;12.60;99.90
6375;DHT22;35400;45.472;-122.822;2024-01-30T03:03:20;12.60;99.90
6375;DHT22;35400;45.472;-122.822;2024-01-30T03:05:47;12.60;99.90
6375;DHT22;35400;45.472;-122.822;2024-01-30T03:08:13;12.60;99.90
6375;DHT22;35400;45.472;-122.822;2024-01-30T03:10:40;12.60;99.90
6375;DHT22;35400;45.472;-122.822;2024-01-30T03:13:07;12.50;99.90
6375;DHT22;35400;45.472;-122.822;2024-01-30T03:15:34;12.50;99.90
6375;DHT22;35400;45.472;-122.822;2024-01-30T03:18:01;12.50;99.90
6375;DHT22;35400;45.472;-122.822;2024-01-30T03:20:28;12.50;99.90
6375;DHT22;35400;45.472;-122.822;2024-01-30T03:22:55;12.50;99.90
6375;DHT22;35400;45.472;-122.822;2024-01-30T03:25:22;12.40;99.90
6375;DHT22;35400;45.472;-122.822;2024-01-30T03:27:49;12.40;99.90
6375;DHT22;35400;45.472;-122.822;2024-01-30T03:30:16;12.40;99.90
6375;DHT22;35400;45.472;-122.822;2024-01-30T03:32:43;12.40;99.90
6375;DHT22;35400;45.472;-122.822;2024-01-30T03:35:10;12.40;99.90
6375;DHT22;35400;45.472;-122.822;2024-01-30T03:37:37;12.40;99.90
6375;DHT22;35400;45.472;-122.822;2024-01-30T03:40:04;12.40;99.90
6375;DHT22;35400;45.472;-122.822;2024-01-30T03:42:31;12.40;99.90
6375;DHT22;35400;45.472;-122.822;2024-01-30T03:44:58;12.40;99.90
6375;DHT22;35400;45.472;-122.822;2024-01-30T03:47:25;12.40;99.90
6375;DHT22;35400;45.472;-122.822;2024-01-30T03:49:52;12.40;99.90
6375;DHT22;35400;45.472;-122.822;2024-01-30T03:52:18;12.40;99.90
6375;DHT22;35400;45.472;-122.822;2024-01-30T03:54:45;12.40;99.90
6375;DHT22;35400;45.472;-122.822;2024-01-30T03:57:12;12.30;99.90
6375;DHT22;35400;45.472;-122.822;2024-01-30T03:59:42;12.30;99.90
6375;DHT22;35400;45.472;-122.822;2024-01-30T04:02:10;12.30;99.90
6375;DHT22;35400;45.472;-122.822;2024-01-30T04:04:38;12.30;99.90
6375;DHT22;35400;45.472;-122.822;2024-01-30T04:07:05;12.30;99.90
6375;DHT22;35400;45.472;-122.822;2024-01-30T04:09:31;12.30;99.90
6375;DHT22;35400;45.472;-122.822;2024-01-30T04:11:58;12.30;99.90
6375;DHT22;35400;45.472;-122.822;2024-01-30T04:14:25;12.30;99.90
6375;DHT22;35400;45.472;-122.822;2024-01-30T04:16:52;12.20;99.90
6375;DHT22;35400;45.472;-122.822;2024-01-30T04:19:19;12.20;99.90
6375;DHT22;35400;45.472;-122.822;2024-01-30T04:21:46;12.20;99.90
6375;DHT22;35400;45.472;-122.822;2024-01-30T04:24:13;12.20;99.90
6375;DHT22;35400;45.472;-122.822;2024-01-30T04:26:40;12.20;99.90
6375;DHT22;35400;45.472;-122.822;2024-01-30T04:29:06;12.20;99.90
6375;DHT22;35400;45.472;-122.822;2024-01-30T04:31:35;12.20;99.90
6375;DHT22;35400;45.472;-122.822;2024-01-30T04:34:03;12.10;99.90
6375;DHT22;35400;45.472;-122.822;2024-01-30T04:36:30;12.10;99.90
6375;DHT22;35400;45.472;-122.822;2024-01-30T04:38:57;12.10;99.90
6375;DHT22;35400;45.472;-122.822;2024-01-30T04:41:24;12.10;99.90
6375;DHT22;35400;45.472;-122.822;2024-01-30T04:43:52;12.10;99.90
6375;DHT22;35400;45.472;-122.822;2024-01-30T04:46:19;12.00;99.90
6375;DHT22;35400;45.472;-122.822;2024-01-30T04:48:45;12.00;99.90
6375;DHT22;35400;45.472;-122.822;2024-01-30T04:51:12;12.00;99.90
6375;DHT22;35400;45.472;-122.822;2024-01-30T04:53:39;12.00;99.90
6375;DHT22;35400;45.472;-122.822;2024-01-30T04:56:06;11.90;99.90
6375;DHT22;35400;45.472;-122.822;2024-01-30T04:58:33;11.90;99.90
6375;DHT22;35400;45.472;-122.822;2024-01-30T05:01:00;11.90;99.90
6375;DHT22;35400;45.472;-122.822;2024-01-30T05:03:27;11.90;99.90
6375;DHT22;35400;45.472;-122.822;2024-01-30T05:05:53;11.90;99.90
6375;DHT22;35400;45.472;-122.822;2024-01-30T05:08:20;11.80;99.90
6375;DHT22;35400;45.472;-122.822;2024-01-30T05:10:47;11.80;99.90
6375;DHT22;35400;45.472;-122.822;2024-01-30T05:13:14;11.70;99.90
6375;DHT22;35400;45.472;-122.822;2024-01-30T05:15:40;11.70;99.90
6375;DHT22;35400;45.472;-122.822;2024-01-30T05:18:07;11.70;99.90
6375;DHT22;35400;45.472;-122.822;2024-01-30T05:20:34;11.70;99.90
6375;DHT22;35400;45.472;-122.822;2024-01-30T05:23:01;11.60;99.90
6375;DHT22;35400;45.472;-122.822;2024-01-30T05:25:28;11.60;99.90
6375;DHT22;35400;45.472;-122.822;2024-01-30T05:27:54;11.60;99.90
6375;DHT22;35400;45.472;-122.822;2024-01-30T05:30:23;11.60;99.90
6375;DHT22;35400;45.472;-122.822;2024-01-30T05:32:49;11.60;99.90
6375;DHT22;35400;45.472;-122.822;2024-01-30T05:35:16;11.50;99.90
6375;DHT22;35400;45.472;-122.822;2024-01-30T05:37:43;11.60;99.90
6375;DHT22;35400;45.472;-122.822;2024-01-30T05:40:10;11.50;99.90
6375;DHT22;35400;45.472;-122.822;2024-01-30T05:42:37;11.60;99.90
6375;DHT22;35400;45.472;-122.822;2024-01-30T05:45:04;11.50;99.90
6375;DHT22;35400;45.472;-122.822;2024-01-30T05:47:31;11.50;99.90
6375;DHT22;35400;45.472;-122.822;2024-01-30T05:49:58;11.50;99.90
6375;DHT22;35400;45.472;-122.822;2024-01-30T05:52:25;11.50;99.90
6375;DHT22;35400;45.472;-122.822;2024-01-30T05:54:52;11.50;99.90
6375;DHT22;35400;45.472;-122.822;2024-01-30T05:57:19;11.50;99.90
6375;DHT22;35400;45.472;-122.822;2024-01-30T05:59:45;11.50;99.90
6375;DHT22;35400;45.472;-122.822;2024-01-30T06:02:14;11.40;99.90
6375;DHT22;35400;45.472;-122.822;2024-01-30T06:04:41;11.40;99.90
6375;DHT22;35400;45.472;-122.822;2024-01-30T06:07:07;11.40;99.90
6375;DHT22;35400;45.472;-122.822;2024-01-30T06:09:34;11.40;99.90
6375;DHT22;35400;45.472;-122.822;2024-01-30T06:12:02;11.40;99.90
6375;DHT22;35400;45.472;-122.822;2024-01-30T06:14:28;11.40;99.90
6375;DHT22;35400;45.472;-122.822;2024-01-30T06:16:55;11.40;99.90
6375;DHT22;35400;45.472;-122.822;2024-01-30T06:19:22;11.30;99.90
6375;DHT22;35400;45.472;-122.822;2024-01-30T06:21:49;11.30;99.90
6375;DHT22;35400;45.472;-122.822;2024-01-30T06:24:15;11.30;99.90
6375;DHT22;35400;45.472;-122.822;2024-01-30T06:26:43;11.20;99.90
6375;DHT22;35400;45.472;-122.822;2024-01-30T06:29:10;11.20;99.90
6375;DHT22;35400;45.472;-122.822;2024-01-30T06:31:40;11.20;99.90
6375;DHT22;35400;45.472;-122.822;2024-01-30T06:34:09;11.20;99.90
6375;DHT22;35400;45.472;-122.822;2024-01-30T06:36:36;11.20;99.90
6375;DHT22;35400;45.472;-122.822;2024-01-30T06:39:04;11.20;99.90
6375;DHT22;35400;45.472;-122.822;2024-01-30T06:41:32;11.10;99.90
6375;DHT22;35400;45.472;-122.822;2024-01-30T06:43:58;11.10;99.90
6375;DHT22;35400;45.472;-122.822;2024-01-30T06:46:25;11.10;99.90
6375;DHT22;35400;45.472;-122.822;2024-01-30T06:48:53;11.10;99.90
6375;DHT22;35400;45.472;-122.822;2024-01-30T06:51:20;11.00;99.90
6375;DHT22;35400;45.472;-122.822;2024-01-30T06:53:47;11.00;99.90
6375;DHT22;35400;45.472;-122.822;2024-01-30T06:56:13;11.00;99.90
6375;DHT22;35400;45.472;-122.822;2024-01-30T06:58:40;11.00;99.90
6375;DHT22;35400;45.472;-122.822;2024-01-30T07:01:07;11.00;99.90
6375;DHT22;35400;45.472;-122.822;2024-01-30T07:03:34;11.00;99.90
6375;DHT22;35400;45.472;-122.822;2024-01-30T07:06:01;10.90;99.90
6375;DHT22;35400;45.472;-122.822;2024-01-30T07:08:28;10.90;99.90
6375;DHT22;35400;45.472;-122.822;2024-01-30T07:10:55;10.90;99.90
6375;DHT22;35400;45.472;-122.822;2024-01-30T07:13:22;10.90;99.90
6375;DHT22;35400;45.472;-122.822;2024-01-30T07:15:49;10.80;99.90
6375;DHT22;35400;45.472;-122.822;2024-01-30T07:18:16;10.80;99.90
6375;DHT22;35400;45.472;-122.822;2024-01-30T07:20:43;10.80;99.90
6375;DHT22;35400;45.472;-122.822;2024-01-30T07:23:13;10.80;99.90
6375;DHT22;35400;45.472;-122.822;2024-01-30T07:25:42;10.80;99.90
6375;DHT22;35400;45.472;-122.822;2024-01-30T07:28:09;10.80;99.90
6375;DHT22;35400;45.472;-122.822;2024-01-30T07:30:37;10.80;99.90
6375;DHT22;35400;45.472;-122.822;2024-01-30T07:33:04;10.80;99.90
6375;DHT22;35400;45.472;-122.822;2024-01-30T07:35:31;10.80;99.90
6375;DHT22;35400;45.472;-122.822;2024-01-30T07:37:57;10.80;99.90
6375;DHT22;35400;45.472;-122.822;2024-01-30T07:40:24;10.80;99.90
6375;DHT22;35400;45.472;-122.822;2024-01-30T07:42:52;10.80;99.90
6375;DHT22;35400;45.472;-122.822;2024-01-30T07:45:19;10.80;99.90
6375;DHT22;35400;45.472;-122.822;2024-01-30T07:47:51;10.80;99.90
6375;DHT22;35400;45.472;-122.822;2024-01-30T07:50:18;10.70;99.90
6375;DHT22;35400;45.472;-122.822;2024-01-30T07:52:45;10.70;99.90
6375;DHT22;35400;45.472;-122.822;2024-01-30T07:55:12;10.70;99.90
6375;DHT22;35400;45.472;-122.822;2024-01-30T07:57:39;10.70;99.90
6375;DHT22;35400;45.472;-122.822;2024-01-30T08:00:06;10.70;99.90
6375;DHT22;35400;45.472;-122.822;2024-01-30T08:02:34;10.70;99.90
6375;DHT22;35400;45.472;-122.822;2024-01-30T08:05:01;10.70;99.90
6375;DHT22;35400;45.472;-122.822;2024-01-30T08:07:28;10.70;99.90
6375;DHT22;35400;45.472;-122.822;2024-01-30T08:09:56;10.80;99.90
6375;DHT22;35400;45.472;-122.822;2024-01-30T08:12:23;10.80;99.90
6375;DHT22;35400;45.472;-122.822;2024-01-30T08:14:50;10.80;99.90
6375;DHT22;35400;45.472;-122.822;2024-01-30T08:17:17;10.80;99.90
6375;DHT22;35400;45.472;-122.822;2024-01-30T08:19:43;10.80;99.90
6375;DHT22;35400;45.472;-122.822;2024-01-30T08:22:12;10.80;99.90
6375;DHT22;35400;45.472;-122.822;2024-01-30T08:24:41;10.80;99.90
6375;DHT22;35400;45.472;-122.822;2024-01-30T08:27:08;10.80;99.90
6375;DHT22;35400;45.472;-122.822;2024-01-30T08:29:38;10.80;99.90
6375;DHT22;35400;45.472;-122.822;2024-01-30T08:32:06;10.80;99.90
6375;DHT22;35400;45.472;-122.822;2024-01-30T08:34:33;10.80;99.90
6375;DHT22;35400;45.472;-122.822;2024-01-30T08:37:00;10.80;99.90
6375;DHT22;35400;45.472;-122.822;2024-01-30T08:39:27;10.80;99.90
6375;DHT22;35400;45.472;-122.822;2024-01-30T08:41:53;10.80;99.90
6375;DHT22;35400;45.472;-122.822;2024-01-30T08:44:20;10.80;99.90
6375;DHT22;35400;45.472;-122.822;2024-01-30T08:46:47;10.90;99.90
6375;DHT22;35400;45.472;-122.822;2024-01-30T08:49:20;11.00;99.90
6375;DHT22;35400;45.472;-122.822;2024-01-30T08:51:47;11.00;99.90
6375;DHT22;35400;45.472;-122.822;2024-01-30T08:54:14;10.90;99.90
6375;DHT22;35400;45.472;-122.822;2024-01-30T08:56:41;10.90;99.90
6375;DHT22;35400;45.472;-122.822;2024-01-30T08:59:07;10.80;99.90
6375;DHT22;35400;45.472;-122.822;2024-01-30T09:01:34;10.80;99.90
6375;DHT22;35400;45.472;-122.822;2024-01-30T09:04:01;10.80;99.90
6375;DHT22;35400;45.472;-122.822;2024-01-30T09:06:28;10.80;99.90
6375;DHT22;35400;45.472;-122.822;2024-01-30T09:08:55;10.70;99.90
6375;DHT22;35400;45.472;-122.822;2024-01-30T09:11:24;10.70;99.90
6375;DHT22;35400;45.472;-122.822;2024-01-30T09:13:51;10.70;99.90
6375;DHT22;35400;45.472;-122.822;2024-01-30T09:16:17;10.70;99.90
6375;DHT22;35400;45.472;-122.822;2024-01-30T09:18:44;10.70;99.90
6375;DHT22;35400;45.472;-122.822;2024-01-30T09:21:11;10.70;99.90
6375;DHT22;35400;45.472;-122.822;2024-01-30T09:23:38;10.60;99.90
6375;DHT22;35400;45.472;-122.822;2024-01-30T09:26:05;10.60;99.90
6375;DHT22;35400;45.472;-122.822;2024-01-30T09:28:32;10.60;99.90
6375;DHT22;35400;45.472;-122.822;2024-01-30T09:30:59;10.60;99.90
6375;DHT22;35400;45.472;-122.822;2024-01-30T09:33:26;10.60;99.90
6375;DHT22;35400;45.472;-122.822;2024-01-30T09:35:52;10.60;99.90
6375;DHT22;35400;45.472;-122.822;2024-01-30T09:38:19;10.60;99.90
6375;DHT22;35400;45.472;-122.822;2024-01-30T09:40:52;10.60;99.90
6375;DHT22;35400;45.472;-122.822;2024-01-30T09:43:23;10.60;99.90
6375;DHT22;35400;45.472;-122.822;2024-01-30T09:45:54;10.50;99.90
6375;DHT22;35400;45.472;-122.822;2024-01-30T09:48:22;10.50;99.90
6375;DHT22;35400;45.472;-122.822;2024-01-30T09:50:50;10.50;99.90
6375;DHT22;35400;45.472;-122.822;2024-01-30T09:53:17;10.50;99.90
6375;DHT22;35400;45.472;-122.822;2024-01-30T09:55:44;10.50;99.90
6375;DHT22;35400;45.472;-122.822;2024-01-30T09:58:12;10.50;99.90
6375;DHT22;35400;45.472;-122.822;2024-01-30T10:00:39;10.50;99.90
6375;DHT22;35400;45.472;-122.822;2024-01-30T10:03:06;10.50;99.90
6375;DHT22;35400;45.472;-122.822;2024-01-30T10:05:33;10.50;99.90
6375;DHT22;35400;45.472;-122.822;2024-01-30T10:08:06;10.50;99.90
6375;DHT22;35400;45.472;-122.822;2024-01-30T10:10:36;10.40;99.90
6375;DHT22;35400;45.472;-122.822;2024-01-30T10:13:03;10.40;99.90
6375;DHT22;35400;45.472;-122.822;2024-01-30T10:15:30;10.40;99.90
6375;DHT22;35400;45.472;-122.822;2024-01-30T10:17:56;10.40;99.90
6375;DHT22;35400;45.472;-122.822;2024-01-30T10:20:25;10.40;99.90
6375;DHT22;35400;45.472;-122.822;2024-01-30T10:22:51;10.40;99.90
6375;DHT22;35400;45.472;-122.822;2024-01-30T10:25:18;10.40;99.90
6375;DHT22;35400;45.472;-122.822;2024-01-30T10:27:53;10.40;99.90
6375;DHT22;35400;45.472;-122.822;2024-01-30T10:30:22;10.40;99.90
6375;DHT22;35400;45.472;-122.822;2024-01-30T10:32:50;10.40;99.90
6375;DHT22;35400;45.472;-122.822;2024-01-30T10:35:18;10.40;99.90
6375;DHT22;35400;45.472;-122.822;2024-01-30T10:37:47;10.40;99.90
6375;DHT22;35400;45.472;-122.822;2024-01-30T10:40:15;10.40;99.90
6375;DHT22;35400;45.472;-122.822;2024-01-30T10:42:45;10.40;99.90
6375;DHT22;35400;45.472;-122.822;2024-01-30T10:45:14;10.40;99.90
6375;DHT22;35400;45.472;-122.822;2024-01-30T10:47:54;10.40;99.90
6375;DHT22;35400;45.472;-122.822;2024-01-30T10:50:27;10.40;99.90
6375;DHT22;35400;45.472;-122.822;2024-01-30T10:52:55;10.40;99.90
6375;DHT22;35400;45.472;-122.822;2024-01-30T10:55:22;10.50;99.90
6375;DHT22;35400;45.472;-122.822;2024-01-30T10:57:50;10.60;99.90
6375;DHT22;35400;45.472;-122.822;2024-01-30T11:00:18;10.60;99.90
6375;DHT22;35400;45.472;-122.822;2024-01-30T11:02:48;10.60;99.90
6375;DHT22;35400;45.472;-122.822;2024-01-30T11:05:24;10.60;99.90
6375;DHT22;35400;45.472;-122.822;2024-01-30T11:07:53;10.50;99.90
6375;DHT22;35400;45.472;-122.822;2024-01-30T11:10:20;10.50;99.90
6375;DHT22;35400;45.472;-122.822;2024-01-30T11:12:47;10.60;99.90
6375;DHT22;35400;45.472;-122.822;2024-01-30T11:15:17;10.60;99.90
6375;DHT22;35400;45.472;-122.822;2024-01-30T11:17:53;10.50;99.90
6375;DHT22;35400;45.472;-122.822;2024-01-30T11:20:22;10.50;99.90
6375;DHT22;35400;45.472;-122.822;2024-01-30T11:22:52;10.50;99.90
6375;DHT22;35400;45.472;-122.822;2024-01-30T11:25:23;10.40;99.90
6375;DHT22;35400;45.472;-122.822;2024-01-30T11:27:53;10.40;99.90
6375;DHT22;35400;45.472;-122.822;2024-01-30T11:30:27;10.50;99.90
6375;DHT22;35400;45.472;-122.822;2024-01-30T11:33:08;10.50;99.90
6375;DHT22;35400;45.472;-122.822;2024-01-30T11:35:37;10.60;99.90
6375;DHT22;35400;45.472;-122.822;2024-01-30T11:38:06;10.50;99.90
6375;DHT22;35400;45.472;-122.822;2024-01-30T11:40:34;10.50;99.90
6375;DHT22;35400;45.472;-122.822;2024-01-30T11:43:02;10.50;99.90
6375;DHT22;35400;45.472;-122.822;2024-01-30T11:45:31;10.40;99.90
6375;DHT22;35400;45.472;-122.822;2024-01-30T11:47:59;10.40;99.90
6375;DHT22;35400;45.472;-122.822;2024-01-30T11:50:28;10.40;99.90
6375;DHT22;35400;45.472;-122.822;2024-01-30T11:52:55;10.30;99.90
6375;DHT22;35400;45.472;-122.822;2024-01-30T11:55:23;10.30;99.90
6375;DHT22;35400;45.472;-122.822;2024-01-30T11:57:50;10.30;99.90
6375;DHT22;35400;45.472;-122.822;2024-01-30T12:00:18;10.30;99.90
6375;DHT22;35400;45.472;-122.822;2024-01-30T12:02:50;10.30;99.90
6375;DHT22;35400;45.472;-122.822;2024-01-30T12:05:19;10.30;99.90
6375;DHT22;35400;45.472;-122.822;2024-01-30T12:07:46;10.30;99.90
6375;DHT22;35400;45.472;-122.822;2024-01-30T12:10:14;10.30;99.90
6375;DHT22;35400;45.472;-122.822;2024-01-30T12:12:47;10.20;99.90
6375;DHT22;35400;45.472;-122.822;2024-01-30T12:15:14;10.20;99.90
6375;DHT22;35400;45.472;-122.822;2024-01-30T12:17:42;10.20;99.90
6375;DHT22;35400;45.472;-122.822;2024-01-30T12:20:13;10.20;99.90
6375;DHT22;35400;45.472;-122.822;2024-01-30T12:22:42;10.20;99.90
6375;DHT22;35400;45.472;-122.822;2024-01-30T12:25:11;10.20;99.90
6375;DHT22;35400;45.472;-122.822;2024-01-30T12:27:38;10.20;99.90
6375;DHT22;35400;45.472;-122.822;2024-01-30T12:30:06;10.20;99.90
6375;DHT22;35400;45.472;-122.822;2024-01-30T12:32:46;10.20;99.90
6375;DHT22;35400;45.472;-122.822;2024-01-30T12:35:19;10.20;99.90
6375;DHT22;35400;45.472;-122.822;2024-01-30T12:37:48;10.20;99.90
6375;DHT22;35400;45.472;-122.822;2024-01-30T12:40:15;10.10;99.90
6375;DHT22;35400;45.472;-122.822;2024-01-30T12:42:42;10.10;99.90
6375;DHT22;35400;45.472;-122.822;2024-01-30T12:45:09;10.10;99.90
6375;DHT22;35400;45.472;-122.822;2024-01-30T12:47:36;10.10;99.90
6375;DHT22;35400;45.472;-122.822;2024-01-30T12:50:03;10.20;99.90
6375;DHT22;35400;45.472;-122.822;2024-01-30T12:52:31;10.20;99.90
6375;DHT22;35400;45.472;-122.822;2024-01-30T12:54:58;10.30;99.90
6375;DHT22;35400;45.472;-122.822;2024-01-30T12:57:25;10.20;99.90
6375;DHT22;35400;45.472;-122.822;2024-01-30T12:59:51;10.20;99.90
6375;DHT22;35400;45.472;-122.822;2024-01-30T13:02:18;10.20;99.90
6375;DHT22;35400;45.472;-122.822;2024-01-30T13:04:45;10.20;99.90
6375;DHT22;35400;45.472;-122.822;2024-01-30T13:07:12;10.10;99.90
6375;DHT22;35400;45.472;-122.822;2024-01-30T13:09:39;10.10;99.90
6375;DHT22;35400;45.472;-122.822;2024-01-30T13:12:06;10.10;99.90
6375;DHT22;35400;45.472;-122.822;2024-01-30T13:14:33;10.10;99.90
6375;DHT22;35400;45.472;-122.822;2024-01-30T13:17:00;10.10;99.90
6375;DHT22;35400;45.472;-122.822;2024-01-30T13:19:27;10.10;99.90
6375;DHT22;35400;45.472;-122.822;2024-01-30T13:21:53;10.10;99.90
6375;DHT22;35400;45.472;-122.822;2024-01-30T13:24:20;10.10;99.90
6375;DHT22;35400;45.472;-122.822;2024-01-30T13:26:48;10.10;99.90
6375;DHT22;35400;45.472;-122.822;2024-01-30T13:29:15;10.10;99.90
6375;DHT22;35400;45.472;-122.822;2024-01-30T13:31:42;10.00;99.90
6375;DHT22;35400;45.472;-122.822;2024-01-30T13:34:10;10.10;99.90
6375;DHT22;35400;45.472;-122.822;2024-01-30T13:36:37;10.00;99.90
6375;DHT22;35400;45.472;-122.822;2024-01-30T13:39:04;10.00;99.90
6375;DHT22;35400;45.472;-122.822;2024-01-30T13:41:35;10.00;99.90
6375;DHT22;35400;45.472;-122.822;2024-01-30T13:44:02;10.00;99.90
6375;DHT22;35400;45.472;-122.822;2024-01-30T13:46:32;10.00;99.90
6375;DHT22;35400;45.472;-122.822;2024-01-30T13:48:59;10.10;99.90
6375;DHT22;35400;45.472;-122.822;2024-01-30T13:51:26;10.00;99.90
6375;DHT22;35400;45.472;-122.822;2024-01-30T13:53:53;10.00;99.90
6375;DHT22;35400;45.472;-122.822;2024-01-30T13:56:20;10.10;99.90
6375;DHT22;35400;45.472;-122.822;2024-01-30T13:58:50;10.10;99.90
6375;DHT22;35400;45.472;-122.822;2024-01-30T14:01:17;10.10;99.90
6375;DHT22;35400;45.472;-122.822;2024-01-30T14:03:44;10.00;99.90
6375;DHT22;35400;45.472;-122.822;2024-01-30T14:06:12;10.00;99.90
6375;DHT22;35400;45.472;-122.822;2024-01-30T14:08:38;10.00;99.90
6375;DHT22;35400;45.472;-122.822;2024-01-30T14:11:05;10.00;99.90
6375;DHT22;35400;45.472;-122.822;2024-01-30T14:13:33;9.90;99.90
6375;DHT22;35400;45.472;-122.822;2024-01-30T14:16:00;9.90;99.90
6375;DHT22;35400;45.472;-122.822;2024-01-30T14:18:27;9.90;99.90
6375;DHT22;35400;45.472;-122.822;2024-01-30T14:20:54;9.90;99.90
6375;DHT22;35400;45.472;-122.822;2024-01-30T14:23:20;9.90;99.90
6375;DHT22;35400;45.472;-122.822;2024-01-30T14:25:47;9.90;99.90
6375;DHT22;35400;45.472;-122.822;2024-01-30T14:28:15;9.90;99.90
6375;DHT22;35400;45.472;-122.822;2024-01-30T14:30:42;9.90;99.90
6375;DHT22;35400;45.472;-122.822;2024-01-30T14:33:08;9.90;99.90
6375;DHT22;35400;45.472;-122.822;2024-01-30T14:35:35;9.90;99.90
6375;DHT22;35400;45.472;-122.822;2024-01-30T14:38:04;9.80;99.90
6375;DHT22;35400;45.472;-122.822;2024-01-30T14:40:31;9.80;99.90
6375;DHT22;35400;45.472;-122.822;2024-01-30T14:42:58;9.80;99.90
6375;DHT22;35400;45.472;-122.822;2024-01-30T14:45:25;9.80;99.90
6375;DHT22;35400;45.472;-122.822;2024-01-30T14:47:52;9.80;99.90
6375;DHT22;35400;45.472;-122.822;2024-01-30T14:50:19;9.80;99.90
6375;DHT22;35400;45.472;-122.822;2024-01-30T14:52:45;9.80;99.90
6375;DHT22;35400;45.472;-122.822;2024-01-30T14:55:12;9.80;99.90
6375;DHT22;35400;45.472;-122.822;2024-01-30T14:57:39;9.80;99.90
6375;DHT22;35400;45.472;-122.822;2024-01-30T15:00:09;9.80;99.90
6375;DHT22;35400;45.472;-122.822;2024-01-30T15:02:35;9.90;99.90
6375;DHT22;35400;45.472;-122.822;2024-01-30T15:05:02;9.90;99.90